sensor_id;sensor_type;location;lat;lon;timestamp;P1;durP1;ratioP1;P2;durP2;ratioP2
3278;SDS011;1651;50.940;6.888;2023-05-16T00:01:28;8.40;;;3.37;;
3278;SDS011;1651;50.940;6.888;2023-05-16T00:03:54;8.07;;;3.80;;
3278;SDS011;1651;50.940;6.888;2023-05-16T00:06:21;9.33;;;4.43;;
3278;SDS011;1651;50.940;6.888;2023-05-16T00:08:47;6.30;;;4.07;;
3278;SDS011;1651;50.940;6.888;2023-05-16T00:11:13;6.10;;;4.30;;
3278;SDS011;1651;50.940;6.888;2023-05-16T00:13:39;7.90;;;4.80;;
3278;SDS011;1651;50.940;6.888;2023-05-16T00:16:06;7.30;;;4.73;;
3278;SDS011;1651;50.940;6.888;2023-05-16T00:18:32;6.80;;;5.03;;
3278;SDS011;1651;50.940;6.888;2023-05-16T00:21:01;10.10;;;5.73;;
3278;SDS011;1651;50.940;6.888;2023-05-16T00:23:27;8.67;;;4.70;;
3278;SDS011;1651;50.940;6.888;2023-05-16T00:25:53;8.90;;;5.70;;
3278;SDS011;1651;50.940;6.888;2023-05-16T00:28:20;7.50;;;5.37;;
3278;SDS011;1651;50.940;6.888;2023-05-16T00:30:46;18.07;;;6.47;;
3278;SDS011;1651;50.940;6.888;2023-05-16T00:33:12;10.83;;;5.10;;
3278;SDS011;1651;50.940;6.888;2023-05-16T00:35:38;7.80;;;5.70;;
3278;SDS011;1651;50.940;6.888;2023-05-16T00:38:04;5.53;;;4.80;;
3278;SDS011;1651;50.940;6.888;2023-05-16T00:40:30;8.77;;;5.10;;
3278;SDS011;1651;50.940;6.888;2023-05-16T00:42:57;5.40;;;4.90;;
3278;SDS011;1651;50.940;6.888;2023-05-16T00:45:23;7.47;;;5.33;;
3278;SDS011;1651;50.940;6.888;2023-05-16T00:47:49;6.83;;;5.00;;
3278;SDS011;1651;50.940;6.888;2023-05-16T00:50:16;7.47;;;5.70;;
3278;SDS011;1651;50.940;6.888;2023-05-16T00:52:42;8.83;;;5.87;;
3278;SDS011;1651;50.940;6.888;2023-05-16T00:55:08;9.50;;;6.33;;
3278;SDS011;1651;50.940;6.888;2023-05-16T00:57:36;8.33;;;6.27;;
3278;SDS011;1651;50.940;6.888;2023-05-16T01:00:05;10.13;;;6.97;;
3278;SDS011;1651;50.940;6.888;2023-05-16T01:02:33;9.90;;;5.90;;
3278;SDS011;1651;50.940;6.888;2023-05-16T01:04:59;8.80;;;6.33;;
3278;SDS011;1651;50.940;6.888;2023-05-16T01:07:25;9.40;;;6.60;;
3278;SDS011;1651;50.940;6.888;2023-05-16T01:09:54;9.00;;;6.00;;
3278;SDS011;1651;50.940;6.888;2023-05-16T01:12:28;9.80;;;6.00;;
3278;SDS011;1651;50.940;6.888;2023-05-16T01:25:36;6.20;;;5.10;;
3278;SDS011;1651;50.940;6.888;2023-05-16T01:28:04;6.73;;;4.57;;
3278;SDS011;1651;50.940;6.888;2023-05-16T01:30:33;9.90;;;5.77;;
3278;SDS011;1651;50.940;6.888;2023-05-16T01:32:59;11.27;;;7.63;;
3278;SDS011;1651;50.940;6.888;2023-05-16T01:35:25;14.40;;;9.27;;
3278;SDS011;1651;50.940;6.888;2023-05-16T01:37:56;11.73;;;7.40;;
3278;SDS011;1651;50.940;6.888;2023-05-16T01:40:27;10.60;;;7.47;;
3278;SDS011;1651;50.940;6.888;2023-05-16T01:42:54;12.13;;;7.72;;
3278;SDS011;1651;50.940;6.888;2023-05-16T01:45:25;13.43;;;7.80;;
3278;SDS011;1651;50.940;6.888;2023-05-16T01:47:59;11.83;;;7.40;;
3278;SDS011;1651;50.940;6.888;2023-05-16T01:50:28;7.95;;;6.25;;
3278;SDS011;1651;50.940;6.888;2023-05-16T01:52:58;12.48;;;7.75;;
3278;SDS011;1651;50.940;6.888;2023-05-16T01:58:10;9.40;;;6.90;;
3278;SDS011;1651;50.940;6.888;2023-05-16T02:00:37;11.95;;;6.85;;
3278;SDS011;1651;50.940;6.888;2023-05-16T02:03:21;10.07;;;6.82;;
3278;SDS011;1651;50.940;6.888;2023-05-16T02:06:05;11.70;;;6.73;;
3278;SDS011;1651;50.940;6.888;2023-05-16T02:08:31;9.93;;;5.80;;
3278;SDS011;1651;50.940;6.888;2023-05-16T02:10:58;6.70;;;4.78;;
3278;SDS011;1651;50.940;6.888;2023-05-16T02:13:24;6.05;;;4.90;;
3278;SDS011;1651;50.940;6.888;2023-05-16T02:15:51;7.20;;;5.18;;
3278;SDS011;1651;50.940;6.888;2023-05-16T02:18:17;7.60;;;4.90;;
3278;SDS011;1651;50.940;6.888;2023-05-16T02:20:44;6.35;;;4.72;;
3278;SDS011;1651;50.940;6.888;2023-05-16T02:23:13;8.30;;;5.63;;
3278;SDS011;1651;50.940;6.888;2023-05-16T02:25:39;12.73;;;7.15;;
3278;SDS011;1651;50.940;6.888;2023-05-16T02:28:05;9.33;;;5.97;;
3278;SDS011;1651;50.940;6.888;2023-05-16T02:30:31;11.77;;;7.43;;
3278;SDS011;1651;50.940;6.888;2023-05-16T02:32:57;13.65;;;8.15;;
3278;SDS011;1651;50.940;6.888;2023-05-16T02:35:23;12.40;;;7.87;;
3278;SDS011;1651;50.940;6.888;2023-05-16T02:37:49;13.38;;;7.90;;
3278;SDS011;1651;50.940;6.888;2023-05-16T02:40:15;17.30;;;8.85;;
3278;SDS011;1651;50.940;6.888;2023-05-16T02:42:41;11.88;;;9.98;;
3278;SDS011;1651;50.940;6.888;2023-05-16T02:45:07;19.02;;;10.85;;
3278;SDS011;1651;50.940;6.888;2023-05-16T02:47:34;16.13;;;10.05;;
3278;SDS011;1651;50.940;6.888;2023-05-16T02:49:59;19.47;;;9.40;;
3278;SDS011;1651;50.940;6.888;2023-05-16T02:52:25;18.77;;;11.33;;
3278;SDS011;1651;50.940;6.888;2023-05-16T02:54:51;18.27;;;11.00;;
3278;SDS011;1651;50.940;6.888;2023-05-16T02:57:17;23.63;;;12.73;;
3278;SDS011;1651;50.940;6.888;2023-05-16T02:59:44;21.57;;;12.23;;
3278;SDS011;1651;50.940;6.888;2023-05-16T03:02:11;21.63;;;10.65;;
3278;SDS011;1651;50.940;6.888;2023-05-16T03:04:37;19.05;;;11.20;;
3278;SDS011;1651;50.940;6.888;2023-05-16T03:07:03;20.30;;;11.10;;
3278;SDS011;1651;50.940;6.888;2023-05-16T03:09:29;22.13;;;10.80;;
3278;SDS011;1651;50.940;6.888;2023-05-16T03:11:55;24.90;;;13.33;;
3278;SDS011;1651;50.940;6.888;2023-05-16T03:14:21;19.43;;;10.87;;
3278;SDS011;1651;50.940;6.888;2023-05-16T03:16:47;18.03;;;9.30;;
3278;SDS011;1651;50.940;6.888;2023-05-16T03:19:13;19.00;;;8.20;;
3278;SDS011;1651;50.940;6.888;2023-05-16T03:21:39;17.93;;;7.97;;
3278;SDS011;1651;50.940;6.888;2023-05-16T03:24:05;11.53;;;8.30;;
3278;SDS011;1651;50.940;6.888;2023-05-16T03:26:32;14.88;;;7.50;;
3278;SDS011;1651;50.940;6.888;2023-05-16T03:28:58;13.83;;;6.90;;
3278;SDS011;1651;50.940;6.888;2023-05-16T03:31:24;19.47;;;7.20;;
3278;SDS011;1651;50.940;6.888;2023-05-16T03:33:49;9.80;;;5.80;;
3278;SDS011;1651;50.940;6.888;2023-05-16T03:36:15;14.30;;;6.55;;
3278;SDS011;1651;50.940;6.888;2023-05-16T03:38:43;12.85;;;6.43;;
3278;SDS011;1651;50.940;6.888;2023-05-16T03:41:09;12.05;;;5.90;;
3278;SDS011;1651;50.940;6.888;2023-05-16T03:43:35;10.50;;;6.33;;
3278;SDS011;1651;50.940;6.888;2023-05-16T03:46:01;13.63;;;6.60;;
3278;SDS011;1651;50.940;6.888;2023-05-16T03:48:28;13.73;;;5.68;;
3278;SDS011;1651;50.940;6.888;2023-05-16T03:50:54;9.18;;;5.43;;
3278;SDS011;1651;50.940;6.888;2023-05-16T03:53:21;12.48;;;6.13;;
3278;SDS011;1651;50.940;6.888;2023-05-16T03:55:47;18.70;;;7.68;;
3278;SDS011;1651;50.940;6.888;2023-05-16T03:58:13;15.17;;;6.17;;
3278;SDS011;1651;50.940;6.888;2023-05-16T04:00:40;18.67;;;6.55;;
3278;SDS011;1651;50.940;6.888;2023-05-16T04:03:06;16.55;;;6.70;;
3278;SDS011;1651;50.940;6.888;2023-05-16T04:05:32;21.60;;;6.32;;
3278;SDS011;1651;50.940;6.888;2023-05-16T04:08:00;14.98;;;6.30;;
3278;SDS011;1651;50.940;6.888;2023-05-16T04:10:33;15.85;;;6.97;;
3278;SDS011;1651;50.940;6.888;2023-05-16T04:13:00;19.27;;;8.88;;
3278;SDS011;1651;50.940;6.888;2023-05-16T04:15:25;18.25;;;8.35;;
3278;SDS011;1651;50.940;6.888;2023-05-16T04:17:51;17.93;;;8.10;;
3278;SDS011;1651;50.940;6.888;2023-05-16T04:23:21;15.80;;;8.43;;
3278;SDS011;1651;50.940;6.888;2023-05-16T04:25:46;17.33;;;9.03;;
3278;SDS011;1651;50.940;6.888;2023-05-16T04:28:12;19.80;;;8.60;;
3278;SDS011;1651;50.940;6.888;2023-05-16T04:30:38;14.67;;;7.40;;
3278;SDS011;1651;50.940;6.888;2023-05-16T04:33:04;23.08;;;8.98;;
3278;SDS011;1651;50.940;6.888;2023-05-16T04:35:32;21.95;;;7.70;;
3278;SDS011;1651;50.940;6.888;2023-05-16T04:37:58;22.52;;;8.10;;
3278;SDS011;1651;50.940;6.888;2023-05-16T04:40:25;24.03;;;8.80;;
3278;SDS011;1651;50.940;6.888;2023-05-16T04:42:52;13.90;;;7.15;;
3278;SDS011;1651;50.940;6.888;2023-05-16T04:45:18;17.80;;;6.63;;
3278;SDS011;1651;50.940;6.888;2023-05-16T04:47:45;13.40;;;5.63;;
3278;SDS011;1651;50.940;6.888;2023-05-16T04:50:13;11.10;;;4.20;;
3278;SDS011;1651;50.940;6.888;2023-05-16T04:52:49;9.18;;;4.80;;
3278;SDS011;1651;50.940;6.888;2023-05-16T04:55:15;10.03;;;4.60;;
3278;SDS011;1651;50.940;6.888;2023-05-16T04:57:41;24.50;;;5.03;;
3278;SDS011;1651;50.940;6.888;2023-05-16T05:00:07;10.87;;;3.93;;
3278;SDS011;1651;50.940;6.888;2023-05-16T05:02:35;17.00;;;4.22;;
3278;SDS011;1651;50.940;6.888;2023-05-16T05:05:02;10.95;;;5.25;;
3278;SDS011;1651;50.940;6.888;2023-05-16T05:07:28;9.10;;;6.95;;
3278;SDS011;1651;50.940;6.888;2023-05-16T05:09:54;15.40;;;5.38;;
3278;SDS011;1651;50.940;6.888;2023-05-16T05:12:20;14.83;;;5.60;;
3278;SDS011;1651;50.940;6.888;2023-05-16T05:14:46;12.60;;;5.57;;
3278;SDS011;1651;50.940;6.888;2023-05-16T05:17:12;13.63;;;5.90;;
3278;SDS011;1651;50.940;6.888;2023-05-16T05:19:38;13.90;;;6.70;;
3278;SDS011;1651;50.940;6.888;2023-05-16T05:22:04;13.10;;;7.00;;
3278;SDS011;1651;50.940;6.888;2023-05-16T05:24:30;19.20;;;6.63;;
3278;SDS011;1651;50.940;6.888;2023-05-16T05:26:56;8.73;;;6.20;;
3278;SDS011;1651;50.940;6.888;2023-05-16T05:29:22;15.00;;;7.20;;
3278;SDS011;1651;50.940;6.888;2023-05-16T05:31:48;10.73;;;7.43;;
3278;SDS011;1651;50.940;6.888;2023-05-16T05:34:14;7.70;;;4.30;;
3278;SDS011;1651;50.940;6.888;2023-05-16T05:36:40;7.57;;;5.53;;
3278;SDS011;1651;50.940;6.888;2023-05-16T05:39:08;12.07;;;4.70;;
3278;SDS011;1651;50.940;6.888;2023-05-16T05:41:34;8.60;;;4.60;;
3278;SDS011;1651;50.940;6.888;2023-05-16T05:44:00;14.00;;;4.40;;
3278;SDS011;1651;50.940;6.888;2023-05-16T05:46:26;12.20;;;4.33;;
3278;SDS011;1651;50.940;6.888;2023-05-16T05:48:52;11.87;;;3.70;;
3278;SDS011;1651;50.940;6.888;2023-05-16T05:51:18;11.83;;;3.17;;
3278;SDS011;1651;50.940;6.888;2023-05-16T05:53:44;7.40;;;3.00;;
3278;SDS011;1651;50.940;6.888;2023-05-16T05:56:10;8.77;;;2.53;;
3278;SDS011;1651;50.940;6.888;2023-05-16T05:58:37;9.47;;;3.30;;
3278;SDS011;1651;50.940;6.888;2023-05-16T06:01:05;7.23;;;3.33;;
3278;SDS011;1651;50.940;6.888;2023-05-16T06:03:31;5.80;;;2.57;;
3278;SDS011;1651;50.940;6.888;2023-05-16T06:05:57;8.17;;;2.90;;
3278;SDS011;1651;50.940;6.888;2023-05-16T06:08:23;9.30;;;2.77;;
3278;SDS011;1651;50.940;6.888;2023-05-16T06:10:50;9.00;;;3.10;;
3278;SDS011;1651;50.940;6.888;2023-05-16T06:13:16;10.33;;;2.50;;
3278;SDS011;1651;50.940;6.888;2023-05-16T06:15:42;5.13;;;2.40;;
3278;SDS011;1651;50.940;6.888;2023-05-16T06:18:08;6.30;;;2.83;;
3278;SDS011;1651;50.940;6.888;2023-05-16T06:20:34;6.07;;;2.33;;
3278;SDS011;1651;50.940;6.888;2023-05-16T06:23:00;4.90;;;1.90;;
3278;SDS011;1651;50.940;6.888;2023-05-16T06:25:26;5.50;;;2.00;;
3278;SDS011;1651;50.940;6.888;2023-05-16T06:27:52;3.97;;;1.97;;
3278;SDS011;1651;50.940;6.888;2023-05-16T06:30:18;4.20;;;1.73;;
3278;SDS011;1651;50.940;6.888;2023-05-16T06:32:44;7.63;;;1.87;;
3278;SDS011;1651;50.940;6.888;2023-05-16T06:35:10;5.70;;;1.90;;
3278;SDS011;1651;50.940;6.888;2023-05-16T06:37:38;4.20;;;1.60;;
3278;SDS011;1651;50.940;6.888;2023-05-16T06:40:05;4.53;;;1.77;;
3278;SDS011;1651;50.940;6.888;2023-05-16T06:42:32;4.07;;;1.60;;
3278;SDS011;1651;50.940;6.888;2023-05-16T06:44:58;5.43;;;1.70;;
3278;SDS011;1651;50.940;6.888;2023-05-16T06:47:24;9.10;;;2.53;;
3278;SDS011;1651;50.940;6.888;2023-05-16T06:49:50;7.03;;;2.30;;
3278;SDS011;1651;50.940;6.888;2023-05-16T06:52:16;5.23;;;1.77;;
3278;SDS011;1651;50.940;6.888;2023-05-16T06:54:42;10.13;;;2.27;;
3278;SDS011;1651;50.940;6.888;2023-05-16T06:57:10;5.13;;;1.60;;
3278;SDS011;1651;50.940;6.888;2023-05-16T06:59:36;4.93;;;1.83;;
3278;SDS011;1651;50.940;6.888;2023-05-16T07:02:02;5.00;;;1.60;;
3278;SDS011;1651;50.940;6.888;2023-05-16T07:04:30;4.03;;;1.53;;
3278;SDS011;1651;50.940;6.888;2023-05-16T07:06:56;4.73;;;1.50;;
3278;SDS011;1651;50.940;6.888;2023-05-16T07:09:22;5.13;;;1.73;;
3278;SDS011;1651;50.940;6.888;2023-05-16T07:11:48;4.63;;;1.63;;
3278;SDS011;1651;50.940;6.888;2023-05-16T07:14:14;6.90;;;2.97;;
3278;SDS011;1651;50.940;6.888;2023-05-16T07:16:40;8.30;;;3.50;;
3278;SDS011;1651;50.940;6.888;2023-05-16T07:19:06;7.70;;;3.60;;
3278;SDS011;1651;50.940;6.888;2023-05-16T07:21:32;13.10;;;3.33;;
3278;SDS011;1651;50.940;6.888;2023-05-16T07:23:58;10.67;;;3.07;;
3278;SDS011;1651;50.940;6.888;2023-05-16T07:26:28;7.20;;;2.87;;
3278;SDS011;1651;50.940;6.888;2023-05-16T07:28:54;8.70;;;3.50;;
3278;SDS011;1651;50.940;6.888;2023-05-16T07:31:21;8.70;;;3.10;;
3278;SDS011;1651;50.940;6.888;2023-05-16T07:33:48;9.73;;;3.37;;
3278;SDS011;1651;50.940;6.888;2023-05-16T07:36:14;10.27;;;3.10;;
3278;SDS011;1651;50.940;6.888;2023-05-16T07:38:40;6.03;;;3.67;;
3278;SDS011;1651;50.940;6.888;2023-05-16T07:41:06;6.20;;;2.50;;
3278;SDS011;1651;50.940;6.888;2023-05-16T07:43:32;11.03;;;3.50;;
3278;SDS011;1651;50.940;6.888;2023-05-16T07:46:01;8.73;;;4.50;;
3278;SDS011;1651;50.940;6.888;2023-05-16T07:48:27;11.50;;;3.63;;
3278;SDS011;1651;50.940;6.888;2023-05-16T07:50:53;16.33;;;4.97;;
3278;SDS011;1651;50.940;6.888;2023-05-16T07:53:20;5.37;;;3.33;;
3278;SDS011;1651;50.940;6.888;2023-05-16T07:55:46;5.47;;;3.10;;
3278;SDS011;1651;50.940;6.888;2023-05-16T07:58:12;14.20;;;3.67;;
3278;SDS011;1651;50.940;6.888;2023-05-16T08:00:38;6.53;;;3.60;;
3278;SDS011;1651;50.940;6.888;2023-05-16T08:03:04;7.60;;;3.67;;
3278;SDS011;1651;50.940;6.888;2023-05-16T08:05:30;6.70;;;3.20;;
3278;SDS011;1651;50.940;6.888;2023-05-16T08:07:56;10.73;;;3.80;;
3278;SDS011;1651;50.940;6.888;2023-05-16T08:10:22;5.73;;;3.20;;
3278;SDS011;1651;50.940;6.888;2023-05-16T08:12:50;6.23;;;3.40;;
3278;SDS011;1651;50.940;6.888;2023-05-16T08:15:17;6.67;;;3.13;;
3278;SDS011;1651;50.940;6.888;2023-05-16T08:17:44;43.87;;;4.80;;
3278;SDS011;1651;50.940;6.888;2023-05-16T08:20:10;3.80;;;2.40;;
3278;SDS011;1651;50.940;6.888;2023-05-16T08:22:37;7.00;;;3.20;;
3278;SDS011;1651;50.940;6.888;2023-05-16T08:25:03;7.00;;;2.93;;
3278;SDS011;1651;50.940;6.888;2023-05-16T08:27:29;6.93;;;2.47;;
3278;SDS011;1651;50.940;6.888;2023-05-16T08:29:55;6.90;;;2.67;;
3278;SDS011;1651;50.940;6.888;2023-05-16T08:32:21;6.17;;;2.50;;
3278;SDS011;1651;50.940;6.888;2023-05-16T08:34:47;4.97;;;2.60;;
3278;SDS011;1651;50.940;6.888;2023-05-16T08:37:13;4.57;;;2.27;;
3278;SDS011;1651;50.940;6.888;2023-05-16T08:39:41;8.23;;;3.53;;
3278;SDS011;1651;50.940;6.888;2023-05-16T08:42:07;6.50;;;2.47;;
3278;SDS011;1651;50.940;6.888;2023-05-16T08:44:33;5.33;;;1.90;;
3278;SDS011;1651;50.940;6.888;2023-05-16T08:47:04;6.40;;;2.00;;
3278;SDS011;1651;50.940;6.888;2023-05-16T08:49:32;4.50;;;1.60;;
3278;SDS011;1651;50.940;6.888;2023-05-16T08:51:59;3.97;;;2.10;;
3278;SDS011;1651;50.940;6.888;2023-05-16T08:54:26;4.00;;;1.80;;
3278;SDS011;1651;50.940;6.888;2023-05-16T08:56:52;5.83;;;1.70;;
3278;SDS011;1651;50.940;6.888;2023-05-16T08:59:20;4.37;;;2.13;;
3278;SDS011;1651;50.940;6.888;2023-05-16T09:01:46;7.23;;;1.90;;
3278;SDS011;1651;50.940;6.888;2023-05-16T09:04:12;4.67;;;2.07;;
3278;SDS011;1651;50.940;6.888;2023-05-16T09:06:38;6.53;;;2.23;;
3278;SDS011;1651;50.940;6.888;2023-05-16T09:09:05;4.23;;;2.00;;
3278;SDS011;1651;50.940;6.888;2023-05-16T09:11:33;4.77;;;1.80;;
3278;SDS011;1651;50.940;6.888;2023-05-16T09:14:02;4.60;;;1.73;;
3278;SDS011;1651;50.940;6.888;2023-05-16T09:16:29;2.73;;;1.97;;
3278;SDS011;1651;50.940;6.888;2023-05-16T09:18:59;6.17;;;2.00;;
3278;SDS011;1651;50.940;6.888;2023-05-16T09:21:33;3.23;;;1.63;;
3278;SDS011;1651;50.940;6.888;2023-05-16T09:26:29;3.77;;;1.20;;
3278;SDS011;1651;50.940;6.888;2023-05-16T09:28:55;5.90;;;1.73;;
3278;SDS011;1651;50.940;6.888;2023-05-16T09:31:25;4.60;;;1.70;;
3278;SDS011;1651;50.940;6.888;2023-05-16T09:33:52;7.47;;;1.93;;
3278;SDS011;1651;50.940;6.888;2023-05-16T09:36:19;2.73;;;1.20;;
3278;SDS011;1651;50.940;6.888;2023-05-16T09:41:16;2.63;;;1.27;;
3278;SDS011;1651;50.940;6.888;2023-05-16T09:43:42;2.40;;;1.60;;
3278;SDS011;1651;50.940;6.888;2023-05-16T09:46:14;4.63;;;1.50;;
3278;SDS011;1651;50.940;6.888;2023-05-16T09:48:41;3.27;;;1.20;;
3278;SDS011;1651;50.940;6.888;2023-05-16T09:51:10;5.20;;;1.73;;
3278;SDS011;1651;50.940;6.888;2023-05-16T09:53:37;2.90;;;1.53;;
3278;SDS011;1651;50.940;6.888;2023-05-16T09:56:09;3.30;;;1.63;;
3278;SDS011;1651;50.940;6.888;2023-05-16T09:58:39;4.00;;;1.67;;
3278;SDS011;1651;50.940;6.888;2023-05-16T10:01:08;3.90;;;1.37;;
3278;SDS011;1651;50.940;6.888;2023-05-16T10:03:35;5.57;;;1.60;;
3278;SDS011;1651;50.940;6.888;2023-05-16T10:06:02;4.47;;;1.70;;
3278;SDS011;1651;50.940;6.888;2023-05-16T10:08:30;1.83;;;1.30;;
3278;SDS011;1651;50.940;6.888;2023-05-16T10:10:58;6.40;;;1.97;;
3278;SDS011;1651;50.940;6.888;2023-05-16T10:13:29;6.77;;;1.97;;
3278;SDS011;1651;50.940;6.888;2023-05-16T10:15:56;3.83;;;1.87;;
3278;SDS011;1651;50.940;6.888;2023-05-16T10:18:23;4.70;;;2.07;;
3278;SDS011;1651;50.940;6.888;2023-05-16T10:20:52;7.53;;;1.87;;
3278;SDS011;1651;50.940;6.888;2023-05-16T10:23:19;3.17;;;1.70;;
3278;SDS011;1651;50.940;6.888;2023-05-16T10:25:47;5.03;;;1.50;;
3278;SDS011;1651;50.940;6.888;2023-05-16T10:28:13;7.13;;;1.63;;
3278;SDS011;1651;50.940;6.888;2023-05-16T10:30:41;3.10;;;1.53;;
3278;SDS011;1651;50.940;6.888;2023-05-16T10:33:11;4.37;;;1.90;;
3278;SDS011;1651;50.940;6.888;2023-05-16T10:35:38;2.30;;;1.40;;
3278;SDS011;1651;50.940;6.888;2023-05-16T10:38:08;2.63;;;1.40;;
3278;SDS011;1651;50.940;6.888;2023-05-16T10:40:37;3.30;;;1.63;;
3278;SDS011;1651;50.940;6.888;2023-05-16T10:43:04;4.57;;;2.67;;
3278;SDS011;1651;50.940;6.888;2023-05-16T10:45:31;3.47;;;1.90;;
3278;SDS011;1651;50.940;6.888;2023-05-16T10:47:58;2.90;;;1.20;;
3278;SDS011;1651;50.940;6.888;2023-05-16T10:50:43;5.90;;;1.20;;
3278;SDS011;1651;50.940;6.888;2023-05-16T10:53:11;3.80;;;1.47;;
3278;SDS011;1651;50.940;6.888;2023-05-16T10:55:37;5.37;;;3.67;;
3278;SDS011;1651;50.940;6.888;2023-05-16T10:58:04;4.53;;;1.50;;
3278;SDS011;1651;50.940;6.888;2023-05-16T11:00:31;5.77;;;2.40;;
3278;SDS011;1651;50.940;6.888;2023-05-16T11:03:03;4.00;;;1.60;;
3278;SDS011;1651;50.940;6.888;2023-05-16T11:05:29;7.50;;;1.63;;
3278;SDS011;1651;50.940;6.888;2023-05-16T11:08:03;4.70;;;1.30;;
3278;SDS011;1651;50.940;6.888;2023-05-16T11:10:30;2.93;;;1.63;;
3278;SDS011;1651;50.940;6.888;2023-05-16T11:13:01;8.23;;;1.93;;
3278;SDS011;1651;50.940;6.888;2023-05-16T11:15:30;3.90;;;2.70;;
3278;SDS011;1651;50.940;6.888;2023-05-16T11:18:03;3.97;;;1.77;;
3278;SDS011;1651;50.940;6.888;2023-05-16T11:20:32;5.73;;;1.50;;
3278;SDS011;1651;50.940;6.888;2023-05-16T11:25:44;4.27;;;1.50;;
3278;SDS011;1651;50.940;6.888;2023-05-16T11:28:11;7.57;;;2.00;;
3278;SDS011;1651;50.940;6.888;2023-05-16T11:30:45;5.17;;;1.50;;
3278;SDS011;1651;50.940;6.888;2023-05-16T11:33:12;2.00;;;1.63;;
3278;SDS011;1651;50.940;6.888;2023-05-16T11:35:38;6.20;;;1.80;;
3278;SDS011;1651;50.940;6.888;2023-05-16T11:38:05;3.00;;;1.60;;
3278;SDS011;1651;50.940;6.888;2023-05-16T11:40:31;3.47;;;1.40;;
3278;SDS011;1651;50.940;6.888;2023-05-16T11:42:59;5.53;;;2.07;;
3278;SDS011;1651;50.940;6.888;2023-05-16T11:45:28;3.23;;;1.30;;
3278;SDS011;1651;50.940;6.888;2023-05-16T11:47:59;2.03;;;1.10;;
3278;SDS011;1651;50.940;6.888;2023-05-16T11:50:27;4.53;;;1.73;;
3278;SDS011;1651;50.940;6.888;2023-05-16T11:52:53;3.93;;;1.53;;
3278;SDS011;1651;50.940;6.888;2023-05-16T11:55:21;5.80;;;1.90;;
3278;SDS011;1651;50.940;6.888;2023-05-16T11:57:48;1.87;;;1.10;;
3278;SDS011;1651;50.940;6.888;2023-05-16T12:02:45;7.43;;;1.53;;
3278;SDS011;1651;50.940;6.888;2023-05-16T12:05:12;3.80;;;1.40;;
3278;SDS011;1651;50.940;6.888;2023-05-16T12:07:38;6.13;;;1.80;;
3278;SDS011;1651;50.940;6.888;2023-05-16T12:10:08;4.17;;;1.40;;
3278;SDS011;1651;50.940;6.888;2023-05-16T12:12:35;2.87;;;1.50;;
3278;SDS011;1651;50.940;6.888;2023-05-16T12:15:04;6.53;;;1.40;;
3278;SDS011;1651;50.940;6.888;2023-05-16T12:17:32;8.50;;;1.90;;
3278;SDS011;1651;50.940;6.888;2023-05-16T12:19:58;5.63;;;1.57;;
3278;SDS011;1651;50.940;6.888;2023-05-16T12:22:25;4.53;;;1.67;;
3278;SDS011;1651;50.940;6.888;2023-05-16T12:24:51;3.73;;;1.40;;
3278;SDS011;1651;50.940;6.888;2023-05-16T12:27:22;1.13;;;0.80;;
3278;SDS011;1651;50.940;6.888;2023-05-16T12:29:49;1.50;;;1.10;;
3278;SDS011;1651;50.940;6.888;2023-05-16T12:32:18;3.70;;;1.30;;
3278;SDS011;1651;50.940;6.888;2023-05-16T12:34:51;2.40;;;1.40;;
3278;SDS011;1651;50.940;6.888;2023-05-16T12:37:19;5.80;;;1.00;;
3278;SDS011;1651;50.940;6.888;2023-05-16T12:39:47;4.37;;;1.13;;
3278;SDS011;1651;50.940;6.888;2023-05-16T12:42:13;3.30;;;1.47;;
3278;SDS011;1651;50.940;6.888;2023-05-16T12:44:44;3.27;;;1.53;;
3278;SDS011;1651;50.940;6.888;2023-05-16T12:47:10;1.63;;;1.10;;
3278;SDS011;1651;50.940;6.888;2023-05-16T12:49:44;2.03;;;1.20;;
3278;SDS011;1651;50.940;6.888;2023-05-16T12:52:21;2.23;;;1.10;;
3278;SDS011;1651;50.940;6.888;2023-05-16T12:54:47;3.50;;;1.20;;
3278;SDS011;1651;50.940;6.888;2023-05-16T12:57:13;2.73;;;0.90;;
3278;SDS011;1651;50.940;6.888;2023-05-16T12:59:39;4.23;;;1.93;;
3278;SDS011;1651;50.940;6.888;2023-05-16T13:02:06;3.70;;;1.60;;
3278;SDS011;1651;50.940;6.888;2023-05-16T13:04:32;4.93;;;1.33;;
3278;SDS011;1651;50.940;6.888;2023-05-16T13:06:58;2.60;;;1.27;;
3278;SDS011;1651;50.940;6.888;2023-05-16T13:09:24;2.13;;;1.10;;
3278;SDS011;1651;50.940;6.888;2023-05-16T13:11:51;5.10;;;1.47;;
3278;SDS011;1651;50.940;6.888;2023-05-16T13:14:17;4.23;;;1.20;;
3278;SDS011;1651;50.940;6.888;2023-05-16T13:16:44;3.10;;;1.23;;
3278;SDS011;1651;50.940;6.888;2023-05-16T13:19:10;2.83;;;1.30;;
3278;SDS011;1651;50.940;6.888;2023-05-16T13:21:36;3.03;;;0.90;;
3278;SDS011;1651;50.940;6.888;2023-05-16T13:24:02;3.30;;;1.53;;
3278;SDS011;1651;50.940;6.888;2023-05-16T13:26:29;3.53;;;1.10;;
3278;SDS011;1651;50.940;6.888;2023-05-16T13:28:56;1.77;;;0.80;;
3278;SDS011;1651;50.940;6.888;2023-05-16T13:31:22;2.80;;;1.20;;
3278;SDS011;1651;50.940;6.888;2023-05-16T13:33:48;4.53;;;1.10;;
3278;SDS011;1651;50.940;6.888;2023-05-16T13:36:15;3.20;;;1.13;;
3278;SDS011;1651;50.940;6.888;2023-05-16T13:38:43;1.63;;;1.10;;
3278;SDS011;1651;50.940;6.888;2023-05-16T13:41:08;1.20;;;0.80;;
3278;SDS011;1651;50.940;6.888;2023-05-16T13:43:35;2.50;;;1.00;;
3278;SDS011;1651;50.940;6.888;2023-05-16T13:46:02;1.30;;;0.90;;
3278;SDS011;1651;50.940;6.888;2023-05-16T13:48:28;2.17;;;1.17;;
3278;SDS011;1651;50.940;6.888;2023-05-16T13:50:54;3.43;;;1.13;;
3278;SDS011;1651;50.940;6.888;2023-05-16T13:53:20;2.20;;;1.07;;
3278;SDS011;1651;50.940;6.888;2023-05-16T13:55:47;1.20;;;0.90;;
3278;SDS011;1651;50.940;6.888;2023-05-16T13:58:13;2.93;;;1.10;;
3278;SDS011;1651;50.940;6.888;2023-05-16T14:00:40;1.70;;;1.00;;
3278;SDS011;1651;50.940;6.888;2023-05-16T14:03:06;4.30;;;1.03;;
3278;SDS011;1651;50.940;6.888;2023-05-16T14:05:32;1.90;;;1.00;;
3278;SDS011;1651;50.940;6.888;2023-05-16T14:07:58;4.73;;;1.13;;
3278;SDS011;1651;50.940;6.888;2023-05-16T14:10:24;2.03;;;1.03;;
3278;SDS011;1651;50.940;6.888;2023-05-16T14:12:50;2.90;;;0.80;;
3278;SDS011;1651;50.940;6.888;2023-05-16T14:15:16;3.23;;;1.17;;
3278;SDS011;1651;50.940;6.888;2023-05-16T14:17:42;2.20;;;1.10;;
3278;SDS011;1651;50.940;6.888;2023-05-16T14:20:08;1.47;;;1.00;;
3278;SDS011;1651;50.940;6.888;2023-05-16T14:22:35;2.70;;;0.90;;
3278;SDS011;1651;50.940;6.888;2023-05-16T14:25:03;2.80;;;1.00;;
3278;SDS011;1651;50.940;6.888;2023-05-16T14:27:30;2.10;;;1.00;;
3278;SDS011;1651;50.940;6.888;2023-05-16T14:29:56;2.30;;;1.00;;
3278;SDS011;1651;50.940;6.888;2023-05-16T14:32:22;2.00;;;1.20;;
3278;SDS011;1651;50.940;6.888;2023-05-16T14:34:48;2.50;;;1.13;;
3278;SDS011;1651;50.940;6.888;2023-05-16T14:37:15;4.20;;;1.20;;
3278;SDS011;1651;50.940;6.888;2023-05-16T14:39:45;3.27;;;1.17;;
3278;SDS011;1651;50.940;6.888;2023-05-16T14:42:13;2.27;;;1.20;;
3278;SDS011;1651;50.940;6.888;2023-05-16T14:44:39;4.20;;;1.30;;
3278;SDS011;1651;50.940;6.888;2023-05-16T14:47:05;2.57;;;1.67;;
3278;SDS011;1651;50.940;6.888;2023-05-16T14:49:31;2.80;;;1.20;;
3278;SDS011;1651;50.940;6.888;2023-05-16T14:51:57;15.50;;;2.47;;
3278;SDS011;1651;50.940;6.888;2023-05-16T14:54:23;2.60;;;1.20;;
3278;SDS011;1651;50.940;6.888;2023-05-16T14:56:49;3.13;;;1.50;;
3278;SDS011;1651;50.940;6.888;2023-05-16T14:59:15;2.00;;;1.30;;
3278;SDS011;1651;50.940;6.888;2023-05-16T15:01:41;2.47;;;1.20;;
3278;SDS011;1651;50.940;6.888;2023-05-16T15:04:08;4.47;;;1.17;;
3278;SDS011;1651;50.940;6.888;2023-05-16T15:06:34;2.23;;;1.50;;
3278;SDS011;1651;50.940;6.888;2023-05-16T15:09:00;2.70;;;1.70;;
3278;SDS011;1651;50.940;6.888;2023-05-16T15:11:27;1.83;;;1.27;;
3278;SDS011;1651;50.940;6.888;2023-05-16T15:13:53;4.47;;;1.40;;
3278;SDS011;1651;50.940;6.888;2023-05-16T15:16:21;4.33;;;1.10;;
3278;SDS011;1651;50.940;6.888;2023-05-16T15:18:47;2.37;;;1.50;;
3278;SDS011;1651;50.940;6.888;2023-05-16T15:21:14;4.03;;;1.20;;
3278;SDS011;1651;50.940;6.888;2023-05-16T15:23:40;1.70;;;1.30;;
3278;SDS011;1651;50.940;6.888;2023-05-16T15:26:07;2.10;;;1.57;;
3278;SDS011;1651;50.940;6.888;2023-05-16T15:28:33;2.00;;;1.20;;
3278;SDS011;1651;50.940;6.888;2023-05-16T15:30:59;2.20;;;1.50;;
3278;SDS011;1651;50.940;6.888;2023-05-16T15:33:25;1.90;;;1.10;;
3278;SDS011;1651;50.940;6.888;2023-05-16T15:35:51;2.43;;;1.27;;